createdAt,value
2018-06-25T00:02:07.197Z,99.90
2018-06-25T00:04:40.233Z,99.90
2018-06-25T00:07:13.284Z,99.90
2018-06-25T00:09:46.290Z,99.90
2018-06-25T00:12:19.317Z,99.90
2018-06-25T00:14:52.360Z,99.90
2018-06-25T00:17:25.360Z,99.90
2018-06-25T00:19:58.398Z,99.90
2018-06-25T00:22:31.414Z,99.90
2018-06-25T00:25:04.510Z,99.90
2018-06-25T00:27:37.583Z,99.90
2018-06-25T00:30:10.933Z,99.90
2018-06-25T00:32:43.946Z,99.90
2018-06-25T00:35:16.970Z,99.90
2018-06-25T00:37:49.958Z,99.90
2018-06-25T00:40:23.001Z,99.90
2018-06-25T00:42:58.013Z,99.90
2018-06-25T00:45:31.014Z,99.90
2018-06-25T00:48:04.026Z,99.90
2018-06-25T00:50:37.091Z,99.90
2018-06-25T00:53:10.078Z,99.90
2018-06-25T00:55:43.090Z,99.90
2018-06-25T00:58:16.109Z,99.90
2018-06-25T01:00:49.148Z,99.90
2018-06-25T01:03:22.162Z,99.90
2018-06-25T01:05:55.263Z,99.90
2018-06-25T01:08:28.215Z,99.90
2018-06-25T01:11:01.218Z,99.90
2018-06-25T01:13:39.581Z,99.90
2018-06-25T01:16:12.656Z,99.90
2018-06-25T01:18:45.638Z,99.90
2018-06-25T01:21:18.636Z,99.90
2018-06-25T01:23:51.687Z,99.90
2018-06-25T01:26:24.837Z,99.90
2018-06-25T01:28:57.890Z,99.90
2018-06-25T01:31:30.930Z,99.90
2018-06-25T01:34:03.994Z,99.90
2018-06-25T01:36:37.033Z,99.90
2018-06-25T01:39:11.157Z,99.90
2018-06-25T01:41:44.188Z,99.90
2018-06-25T01:44:17.201Z,99.90
2018-06-25T01:46:50.240Z,99.90
2018-06-25T01:49:23.282Z,99.90
2018-06-25T01:51:56.352Z,99.90
2018-06-25T01:54:29.330Z,99.90
2018-06-25T01:57:02.381Z,99.90
2018-06-25T01:59:35.382Z,99.90
2018-06-25T02:02:08.407Z,99.90
2018-06-25T02:04:41.478Z,99.90
2018-06-25T02:07:14.498Z,99.90
2018-06-25T02:09:47.505Z,99.90
2018-06-25T02:12:20.543Z,99.90
2018-06-25T02:14:53.559Z,99.90
2018-06-25T02:17:26.767Z,99.90
2018-06-25T02:19:59.850Z,99.90
2018-06-25T02:22:33.110Z,99.90
2018-06-25T02:25:07.037Z,99.90
2018-06-25T02:27:40.074Z,99.90
2018-06-25T02:30:13.149Z,99.90
2018-06-25T02:32:46.178Z,99.90
2018-06-25T02:35:19.198Z,99.90
2018-06-25T02:37:52.232Z,99.90
2018-06-25T02:40:25.267Z,99.90
2018-06-25T02:42:58.306Z,99.90
2018-06-25T02:45:31.333Z,99.90
2018-06-25T02:48:04.891Z,99.90
2018-06-25T02:50:37.893Z,99.90
2018-06-25T02:53:10.950Z,99.90
2018-06-25T02:55:43.967Z,99.90
2018-06-25T02:58:16.997Z,99.90
2018-06-25T03:00:50.032Z,99.90
2018-06-25T03:03:23.062Z,99.90
2018-06-25T03:05:56.110Z,99.90
2018-06-25T03:08:29.158Z,99.90
2018-06-25T03:11:02.178Z,99.90
2018-06-25T03:13:35.274Z,99.90
2018-06-25T03:16:08.262Z,99.90
2018-06-25T03:18:41.313Z,99.90
2018-06-25T03:21:15.386Z,99.90
2018-06-25T03:23:48.498Z,99.90
2018-06-25T03:26:21.594Z,99.90
2018-06-25T03:28:54.621Z,99.90
2018-06-25T03:31:27.631Z,99.90
2018-06-25T03:34:00.741Z,99.90
2018-06-25T03:36:33.769Z,99.90
2018-06-25T03:39:08.314Z,99.90
2018-06-25T03:41:41.311Z,99.90
2018-06-25T03:44:14.373Z,99.90
2018-06-25T03:46:47.400Z,99.90
2018-06-25T03:49:20.448Z,99.90
2018-06-25T03:51:53.472Z,99.90
2018-06-25T03:54:26.511Z,99.90
2018-06-25T03:56:59.530Z,99.90
2018-06-25T03:59:32.578Z,99.90
2018-06-25T04:02:05.600Z,99.90
2018-06-25T04:04:38.655Z,99.90
2018-06-25T04:07:11.669Z,99.90
2018-06-25T04:12:17.498Z,99.90
2018-06-25T04:14:50.511Z,99.90
2018-06-25T04:17:23.535Z,99.90
2018-06-25T04:19:56.596Z,99.90
2018-06-25T04:22:29.621Z,99.90
2018-06-25T04:25:02.618Z,99.90
2018-06-25T04:27:35.667Z,99.90
2018-06-25T04:30:08.695Z,99.90
2018-06-25T04:32:41.751Z,99.90
2018-06-25T04:35:14.800Z,99.90
2018-06-25T04:37:47.865Z,99.90
2018-06-25T04:40:20.977Z,99.90
2018-06-25T04:42:54.100Z,99.90
2018-06-25T04:45:27.167Z,99.90
2018-06-25T04:48:00.170Z,99.90
2018-06-25T04:50:33.196Z,99.90
2018-06-25T04:53:06.210Z,99.90
2018-06-25T04:55:39.261Z,99.90
2018-06-25T04:58:12.286Z,99.90
2018-06-25T05:00:45.321Z,99.90
2018-06-25T05:03:18.356Z,99.90
2018-06-25T05:05:51.446Z,99.90
2018-06-25T05:08:24.499Z,99.90
2018-06-25T05:10:57.554Z,99.90
2018-06-25T05:13:30.543Z,99.90
2018-06-25T05:16:03.616Z,99.90
2018-06-25T05:18:37.143Z,99.90
2018-06-25T05:21:10.170Z,99.90
2018-06-25T05:23:43.229Z,99.90
2018-06-25T05:26:16.242Z,99.90
2018-06-25T05:28:49.261Z,99.90
2018-06-25T05:31:22.393Z,99.90
2018-06-25T05:33:55.464Z,99.90
2018-06-25T05:36:28.515Z,99.90
2018-06-25T05:39:01.554Z,99.90
2018-06-25T05:41:34.542Z,99.90
2018-06-25T05:44:07.634Z,99.90
2018-06-25T05:46:40.689Z,99.90
2018-06-25T05:49:13.702Z,99.90
2018-06-25T05:51:46.747Z,99.90
2018-06-25T05:56:52.610Z,99.90
2018-06-25T05:59:25.658Z,99.90
2018-06-25T06:01:58.706Z,99.90
2018-06-25T06:04:31.694Z,99.90
2018-06-25T06:07:05.162Z,99.90
2018-06-25T06:09:38.266Z,99.90
2018-06-25T06:12:11.302Z,99.90
2018-06-25T06:14:44.360Z,99.90
2018-06-25T06:17:17.396Z,99.90
2018-06-25T06:22:23.281Z,99.90
2018-06-25T06:24:56.319Z,99.90
2018-06-25T06:27:29.322Z,99.90
2018-06-25T06:30:02.504Z,99.90
2018-06-25T06:32:35.541Z,99.90
2018-06-25T06:35:08.574Z,99.90
2018-06-25T06:37:41.642Z,99.90
2018-06-25T06:40:14.699Z,99.90
2018-06-25T06:42:47.702Z,99.90
2018-06-25T06:45:20.767Z,99.90
2018-06-25T06:47:53.821Z,99.90
2018-06-25T06:50:26.885Z,99.90
2018-06-25T06:53:00.015Z,99.90
2018-06-25T06:55:33.034Z,99.90
2018-06-25T06:58:06.148Z,99.90
2018-06-25T07:00:39.218Z,99.90
2018-06-25T07:03:12.268Z,99.90
2018-06-25T07:05:45.311Z,99.90
2018-06-25T07:08:18.359Z,99.90
2018-06-25T07:10:51.394Z,99.90
2018-06-25T07:13:24.470Z,99.90
2018-06-25T07:15:57.604Z,99.90
2018-06-25T07:18:30.674Z,99.90
2018-06-25T07:21:03.692Z,99.90
2018-06-25T07:23:36.755Z,99.90
2018-06-25T07:26:09.807Z,99.90
2018-06-25T07:28:42.870Z,99.90
2018-06-25T07:31:15.870Z,99.90
2018-06-25T07:33:48.890Z,99.90
2018-06-25T07:36:21.949Z,99.90
2018-06-25T07:38:55.040Z,99.90
2018-06-25T07:41:28.043Z,99.90
2018-06-25T07:44:01.075Z,99.90
2018-06-25T07:46:34.074Z,99.90
2018-06-25T07:49:07.149Z,99.90
2018-06-25T07:51:40.158Z,99.90
2018-06-25T07:54:13.251Z,99.90
2018-06-25T07:56:46.353Z,99.90
2018-06-25T07:59:19.397Z,99.80
2018-06-25T08:01:52.390Z,99.90
2018-06-25T08:04:25.418Z,99.90
2018-06-25T08:06:58.420Z,99.70
2018-06-25T08:12:04.355Z,99.40
2018-06-25T08:14:37.402Z,99.70
2018-06-25T08:17:10.463Z,99.80
2018-06-25T08:19:43.462Z,99.40
2018-06-25T08:22:16.466Z,98.60
2018-06-25T08:24:49.516Z,97.80
2018-06-25T08:27:22.578Z,98.00
2018-06-25T08:29:55.724Z,98.20
2018-06-25T08:32:28.693Z,98.10
2018-06-25T08:35:01.839Z,97.50
2018-06-25T08:37:34.938Z,98.20
2018-06-25T08:40:08.095Z,97.30
2018-06-25T08:42:41.162Z,97.30
2018-06-25T08:45:14.592Z,97.20
2018-06-25T08:47:47.607Z,96.30
2018-06-25T08:50:20.626Z,97.80
2018-06-25T08:52:53.707Z,97.50
2018-06-25T08:55:26.750Z,97.00
2018-06-25T08:57:59.915Z,96.40
2018-06-25T09:00:32.973Z,96.20
2018-06-25T09:03:06.549Z,96.70
2018-06-25T09:05:39.602Z,97.00
2018-06-25T09:08:12.783Z,95.40
2018-06-25T09:10:45.830Z,95.30
2018-06-25T09:13:18.841Z,94.50
2018-06-25T09:15:51.894Z,94.40
2018-06-25T09:18:24.909Z,94.00
2018-06-25T09:20:57.953Z,94.40
2018-06-25T09:23:31.015Z,93.70
2018-06-25T09:26:04.131Z,93.70
2018-06-25T09:28:37.145Z,93.10
2018-06-25T09:31:10.159Z,93.10
2018-06-25T09:33:43.193Z,94.10
2018-06-25T09:36:16.382Z,92.50
2018-06-25T09:38:49.445Z,92.80
2018-06-25T09:41:22.590Z,92.80
2018-06-25T09:43:55.498Z,91.90
2018-06-25T09:46:28.593Z,91.20
2018-06-25T09:49:01.602Z,92.50
2018-06-25T09:51:34.672Z,91.30
2018-06-25T09:54:07.697Z,91.40
2018-06-25T09:56:40.716Z,91.90
2018-06-25T09:59:13.754Z,90.90
2018-06-25T10:01:46.758Z,91.40
2018-06-25T10:04:19.803Z,92.20
2018-06-25T10:06:52.830Z,91.70
2018-06-25T10:09:25.834Z,91.10
2018-06-25T10:11:58.913Z,92.40
2018-06-25T10:14:31.926Z,93.40
2018-06-25T10:17:05.886Z,92.30
2018-06-25T10:19:39.014Z,91.00
2018-06-25T10:22:12.095Z,90.60
2018-06-25T10:24:45.090Z,90.70
2018-06-25T10:27:18.120Z,90.00
2018-06-25T10:29:51.105Z,90.00
2018-06-25T10:32:24.201Z,90.30
2018-06-25T10:34:57.332Z,87.60
2018-06-25T10:37:30.486Z,87.40
2018-06-25T10:40:03.502Z,90.60
2018-06-25T10:45:09.365Z,89.20
2018-06-25T10:47:42.431Z,89.90
2018-06-25T10:50:15.718Z,90.20
2018-06-25T10:52:48.967Z,88.80
2018-06-25T10:55:21.998Z,86.80
2018-06-25T10:57:55.059Z,88.50
2018-06-25T11:00:28.239Z,88.00
2018-06-25T11:03:01.449Z,89.40
2018-06-25T11:05:34.488Z,88.40
2018-06-25T11:08:07.584Z,84.70
2018-06-25T11:13:13.481Z,86.00
2018-06-25T11:15:46.596Z,84.80
2018-06-25T11:18:19.617Z,87.30
2018-06-25T11:20:52.688Z,88.90
2018-06-25T11:23:25.766Z,82.00
2018-06-25T11:25:58.771Z,82.50
2018-06-25T11:28:31.847Z,81.20
2018-06-25T11:31:04.910Z,79.90
2018-06-25T11:33:37.991Z,80.40
2018-06-25T11:36:11.030Z,84.50
2018-06-25T11:38:44.128Z,82.80
2018-06-25T11:41:17.175Z,81.60
2018-06-25T11:43:50.248Z,79.70
2018-06-25T11:46:23.321Z,80.40
2018-06-25T11:48:56.389Z,77.70
2018-06-25T11:51:29.491Z,80.40
2018-06-25T11:54:02.576Z,78.20
2018-06-25T11:56:36.659Z,75.50
2018-06-25T11:59:09.711Z,76.80
2018-06-25T12:01:42.794Z,77.80
2018-06-25T12:04:15.797Z,73.80
2018-06-25T12:06:48.836Z,74.90
2018-06-25T12:09:21.986Z,73.90
2018-06-25T12:11:55.030Z,76.60
2018-06-25T12:14:28.255Z,73.60
2018-06-25T12:17:01.283Z,73.30
2018-06-25T12:19:34.335Z,73.00
2018-06-25T12:22:07.434Z,74.10
2018-06-25T12:24:40.465Z,74.00
2018-06-25T12:29:46.413Z,73.90
2018-06-25T12:32:19.434Z,75.20
2018-06-25T12:34:52.462Z,76.90
2018-06-25T12:37:25.458Z,73.90
2018-06-25T12:39:58.499Z,73.30
2018-06-25T12:42:31.527Z,76.60
2018-06-25T12:45:04.703Z,76.70
2018-06-25T12:47:37.742Z,78.20
2018-06-25T12:50:10.934Z,78.40
2018-06-25T12:52:43.994Z,78.40
2018-06-25T12:55:17.063Z,77.40
2018-06-25T12:57:50.086Z,78.00
2018-06-25T13:00:23.165Z,78.90
2018-06-25T13:02:56.210Z,77.90
2018-06-25T13:05:29.256Z,73.30
2018-06-25T13:08:02.294Z,77.30
2018-06-25T13:10:35.365Z,73.80
2018-06-25T13:13:08.390Z,73.70
2018-06-25T13:15:41.464Z,73.40
2018-06-25T13:18:14.546Z,71.60
2018-06-25T13:20:47.522Z,74.60
2018-06-25T13:23:20.549Z,73.40
2018-06-25T13:25:53.715Z,75.70
2018-06-25T13:28:26.712Z,77.00
2018-06-25T13:30:59.780Z,73.20
2018-06-25T13:33:32.786Z,75.90
2018-06-25T13:36:07.038Z,77.10
2018-06-25T13:38:40.124Z,75.10
2018-06-25T13:41:13.221Z,75.10
2018-06-25T13:43:46.255Z,73.60
2018-06-25T13:46:19.287Z,72.90
2018-06-25T13:48:52.375Z,72.80
2018-06-25T13:51:25.442Z,73.30
2018-06-25T13:53:58.591Z,76.10
2018-06-25T13:56:31.615Z,76.40
2018-06-25T14:01:37.656Z,75.40
2018-06-25T14:04:10.792Z,75.40
2018-06-25T14:06:43.836Z,72.40
2018-06-25T14:09:16.868Z,75.40
2018-06-25T14:11:49.981Z,74.80
2018-06-25T14:14:23.011Z,72.20
2018-06-25T14:16:56.325Z,73.40
2018-06-25T14:19:29.062Z,74.20
2018-06-25T14:22:02.170Z,75.80
2018-06-25T14:24:40.517Z,72.30
2018-06-25T14:27:13.534Z,73.30
2018-06-25T14:29:46.570Z,73.80
2018-06-25T14:32:25.017Z,74.00
2018-06-25T14:35:03.394Z,72.90
2018-06-25T14:37:36.413Z,74.40
2018-06-25T14:40:09.496Z,74.60
2018-06-25T14:42:42.471Z,75.40
2018-06-25T14:45:15.536Z,73.90
2018-06-25T14:47:48.569Z,72.60
2018-06-25T14:50:21.639Z,73.40
2018-06-25T14:52:54.775Z,74.40
2018-06-25T14:55:27.830Z,73.30
2018-06-25T14:58:00.962Z,75.00
2018-06-25T15:00:34.035Z,73.20
2018-06-25T15:03:07.055Z,74.70
2018-06-25T15:05:40.095Z,74.40
2018-06-25T15:08:15.271Z,74.30
2018-06-25T15:10:48.420Z,75.80
2018-06-25T15:13:21.563Z,75.90
2018-06-25T15:15:54.518Z,75.90
2018-06-25T15:21:00.423Z,77.80
2018-06-25T15:23:33.471Z,76.40
2018-06-25T15:26:06.555Z,76.30
2018-06-25T15:28:39.540Z,77.50
2018-06-25T15:31:12.555Z,79.10
2018-06-25T15:33:45.620Z,78.10
2018-06-25T15:36:18.701Z,78.00
2018-06-25T15:38:51.746Z,77.50
2018-06-25T15:41:24.768Z,78.40
2018-06-25T15:43:57.784Z,79.30
2018-06-25T15:46:30.840Z,77.40
2018-06-25T15:49:03.911Z,78.10
2018-06-25T15:51:36.944Z,78.20
2018-06-25T15:54:10.186Z,78.40
2018-06-25T15:56:43.214Z,78.60
2018-06-25T15:59:16.264Z,78.60
2018-06-25T16:01:49.285Z,79.10
2018-06-25T16:04:22.333Z,78.00
2018-06-25T16:06:55.447Z,76.80
2018-06-25T16:09:28.418Z,76.00
2018-06-25T16:12:01.442Z,78.60
2018-06-25T16:14:34.497Z,78.70
2018-06-25T16:17:07.547Z,77.90
2018-06-25T16:19:40.566Z,78.50
2018-06-25T16:22:13.593Z,79.10
2018-06-25T16:24:46.634Z,78.80
2018-06-25T16:27:19.631Z,78.30
2018-06-25T16:29:52.675Z,78.50
2018-06-25T16:32:25.723Z,78.90
2018-06-25T16:34:58.752Z,77.80
2018-06-25T16:37:31.790Z,78.80
2018-06-25T16:40:04.860Z,79.00
2018-06-25T16:45:10.717Z,79.00
2018-06-25T16:47:43.757Z,78.60
2018-06-25T16:50:16.790Z,78.20
2018-06-25T16:52:49.815Z,78.00
2018-06-25T16:55:22.834Z,78.00
2018-06-25T16:57:55.865Z,76.40
2018-06-25T17:00:28.888Z,77.30
2018-06-25T17:03:01.900Z,78.50
2018-06-25T17:05:34.981Z,76.60
2018-06-25T17:08:07.995Z,77.70
2018-06-25T17:10:41.089Z,74.60
2018-06-25T17:13:14.057Z,76.50
2018-06-25T17:15:47.130Z,75.30
2018-06-25T17:18:20.145Z,76.00
2018-06-25T17:20:53.158Z,75.60
2018-06-25T17:23:26.230Z,75.20
2018-06-25T17:25:59.290Z,76.00
2018-06-25T17:28:32.294Z,75.80
2018-06-25T17:31:05.354Z,76.00
2018-06-25T17:33:38.383Z,75.90
2018-06-25T17:36:11.557Z,75.50
2018-06-25T17:38:44.644Z,74.70
2018-06-25T17:41:17.694Z,76.10
2018-06-25T17:43:50.715Z,76.80
2018-06-25T17:46:23.756Z,76.80
2018-06-25T17:48:56.787Z,76.90
2018-06-25T17:51:29.826Z,77.90
2018-06-25T17:54:02.872Z,77.00
2018-06-25T17:56:35.950Z,77.30
2018-06-25T17:59:08.961Z,77.40
2018-06-25T18:01:42.102Z,78.00
2018-06-25T18:04:15.098Z,79.10
2018-06-25T18:06:48.775Z,79.20
2018-06-25T18:09:21.791Z,79.40
2018-06-25T18:11:54.836Z,79.20
2018-06-25T18:14:27.875Z,79.30
2018-06-25T18:17:01.624Z,79.10
2018-06-25T18:19:34.721Z,79.10
2018-06-25T18:22:07.794Z,79.10
2018-06-25T18:24:40.815Z,77.90
2018-06-25T18:27:13.938Z,78.40
2018-06-25T18:29:46.961Z,78.80
2018-06-25T18:32:20.013Z,78.30
2018-06-25T18:34:53.043Z,78.40
2018-06-25T18:37:26.175Z,78.90
2018-06-25T18:39:59.213Z,79.70
2018-06-25T18:42:32.298Z,80.40
2018-06-25T18:45:05.520Z,80.60
2018-06-25T18:47:38.591Z,81.30
2018-06-25T18:50:11.606Z,81.60
2018-06-25T18:52:44.646Z,82.00
2018-06-25T18:55:18.403Z,81.70
2018-06-25T18:57:52.221Z,82.30
2018-06-25T19:00:25.943Z,82.60
2018-06-25T19:02:59.742Z,82.60
2018-06-25T19:05:33.511Z,83.00
2018-06-25T19:08:07.465Z,83.20
2018-06-25T19:10:40.620Z,83.50
2018-06-25T19:13:13.685Z,84.00
2018-06-25T19:15:46.706Z,84.30
2018-06-25T19:18:19.741Z,84.30
2018-06-25T19:20:52.785Z,84.20
2018-06-25T19:23:25.865Z,84.90
2018-06-25T19:25:58.883Z,84.80
2018-06-25T19:28:31.958Z,86.50
2018-06-25T19:31:05.315Z,84.90
2018-06-25T19:33:40.513Z,85.50
2018-06-25T19:36:13.737Z,86.00
2018-06-25T19:38:47.890Z,86.00
2018-06-25T19:41:21.083Z,86.00
2018-06-25T19:43:56.437Z,86.40
2018-06-25T19:46:29.510Z,87.40
2018-06-25T19:49:02.651Z,88.00
2018-06-25T19:51:35.739Z,88.30
2018-06-25T19:54:09.572Z,89.00
2018-06-25T19:56:42.668Z,90.00
2018-06-25T19:59:18.996Z,90.10
2018-06-25T20:01:53.181Z,90.40
2018-06-25T20:04:29.089Z,90.50
2018-06-25T20:07:03.135Z,90.50
2018-06-25T20:09:37.307Z,90.50
2018-06-25T20:12:12.485Z,91.00
2018-06-25T20:14:45.569Z,90.80
2018-06-25T20:17:18.566Z,91.10
2018-06-25T20:19:51.653Z,90.90
2018-06-25T20:22:24.786Z,90.50
2018-06-25T20:24:57.782Z,90.30
2018-06-25T20:27:30.874Z,90.40
2018-06-25T20:30:04.976Z,90.30
2018-06-25T20:32:38.126Z,90.50
2018-06-25T20:35:11.914Z,90.70
2018-06-25T20:37:44.902Z,90.60
2018-06-25T20:40:17.958Z,90.80
2018-06-25T20:42:51.025Z,91.00
2018-06-25T20:45:24.336Z,91.20
2018-06-25T20:47:57.361Z,91.50
2018-06-25T20:50:30.451Z,91.60
2018-06-25T20:53:03.533Z,91.50
2018-06-25T20:55:36.633Z,91.50
2018-06-25T21:00:42.528Z,91.50
2018-06-25T21:03:15.591Z,91.40
2018-06-25T21:05:48.617Z,91.30
2018-06-25T21:08:21.662Z,91.40
2018-06-25T21:10:54.739Z,91.70
2018-06-25T21:13:28.197Z,91.40
2018-06-25T21:16:01.285Z,91.50
2018-06-25T21:18:34.334Z,91.50
2018-06-25T21:21:15.998Z,91.60
2018-06-25T21:23:49.449Z,91.60
2018-06-25T21:26:22.758Z,91.50
2018-06-25T21:28:55.794Z,91.30
2018-06-25T21:31:28.821Z,91.30
2018-06-25T21:34:01.834Z,91.70
2018-06-25T21:36:34.898Z,91.20
2018-06-25T21:39:15.828Z,91.20
2018-06-25T21:41:48.910Z,91.30
2018-06-25T21:44:24.935Z,91.30
2018-06-25T21:46:57.975Z,91.40
2018-06-25T21:49:31.014Z,91.40
2018-06-25T21:52:04.019Z,91.40
2018-06-25T21:54:37.097Z,91.30
2018-06-25T21:57:11.718Z,91.40
2018-06-25T21:59:44.705Z,91.20
2018-06-25T22:04:51.274Z,91.10
2018-06-25T22:07:24.288Z,91.10
2018-06-25T22:09:59.206Z,91.00
2018-06-25T22:12:32.243Z,90.90
2018-06-25T22:15:09.565Z,90.70
2018-06-25T22:17:47.640Z,90.60
2018-06-25T22:20:20.917Z,90.60
2018-06-25T22:22:54.063Z,90.50
2018-06-25T22:25:30.175Z,90.60
2018-06-25T22:28:03.238Z,90.50
2018-06-25T22:30:36.714Z,91.70
2018-06-25T22:33:09.845Z,91.00
2018-06-25T22:38:15.698Z,91.20
2018-06-25T22:40:48.707Z,91.50
2018-06-25T22:43:21.763Z,91.70
2018-06-25T22:45:54.778Z,91.60
2018-06-25T22:48:29.453Z,93.00
2018-06-25T22:51:02.610Z,92.30
2018-06-25T22:53:35.629Z,92.60
2018-06-25T22:56:08.646Z,92.90
2018-06-25T22:58:41.703Z,92.80
2018-06-25T23:01:14.766Z,92.70
2018-06-25T23:03:47.972Z,92.90
2018-06-25T23:06:20.973Z,92.70
2018-06-25T23:11:26.876Z,92.40
2018-06-25T23:13:59.937Z,92.90
2018-06-25T23:16:33.037Z,92.50
2018-06-25T23:19:09.291Z,92.40
2018-06-25T23:21:42.287Z,92.50
2018-06-25T23:24:15.321Z,92.40
2018-06-25T23:26:48.310Z,92.30
2018-06-25T23:29:21.342Z,92.00
2018-06-25T23:31:54.390Z,92.10
2018-06-25T23:34:28.480Z,92.00
2018-06-25T23:37:01.463Z,92.10
2018-06-25T23:39:34.512Z,92.00
2018-06-25T23:42:07.502Z,92.10
2018-06-25T23:44:41.347Z,92.00
2018-06-25T23:47:14.427Z,92.00
2018-06-25T23:49:47.442Z,91.90
2018-06-25T23:52:20.439Z,91.90
2018-06-25T23:54:53.438Z,91.80
2018-06-25T23:57:26.448Z,91.70
2018-06-25T23:59:59.486Z,91.60
